Time;durP1;ratioP1;P1;durP2;ratioP2;P2;SDS_P1;SDS_P2;PMS_P1;PMS_P2;Temp;Humidity;BMP_temperature;BMP_pressure;BME280_temperature;BME280_humidity;BME280_pressure;Samples;Min_cycle;Max_cycle;Signal;HPM_P1;HPM_P2
2022/11/24 00:01:29;;;;;;;25.38;14.10;;;20.00;58.20;;;;;;5116244;27;20027;-63
2022/11/24 00:04:00;;;;;;;24.38;14.20;;;20.00;58.20;;;;;;5121540;27;20131;-64
2022/11/24 00:06:27;;;;;;;23.23;13.30;;;20.00;58.20;;;;;;5116015;27;20039;-64
2022/11/24 00:08:53;;;;;;;25.23;13.90;;;20.00;58.20;;;;;;5119605;27;20031;-63
2022/11/24 00:11:27;;;;;;;25.75;14.73;;;20.00;58.20;;;;;;5119977;27;20028;-63
2022/11/24 00:13:53;;;;;;;24.50;13.98;;;20.00;58.20;;;;;;5116828;27;20470;-64
2022/11/24 00:16:24;;;;;;;24.13;14.02;;;20.00;58.20;;;;;;5116420;28;20027;-63
2022/11/24 00:18:52;;;;;;;24.70;14.15;;;20.00;58.20;;;;;;5118855;27;20387;-63
2022/11/24 00:21:19;;;;;;;25.00;14.55;;;20.00;58.20;;;;;;5116203;28;20035;-64
2022/11/24 00:23:45;;;;;;;23.45;13.95;;;20.00;58.20;;;;;;5118626;28;20103;-63
2022/11/24 00:26:12;;;;;;;21.80;13.23;;;20.00;58.20;;;;;;5121018;28;20466;-64
2022/11/24 00:28:38;;;;;;;21.83;13.07;;;20.00;58.20;;;;;;5115819;28;20089;-63
2022/11/24 00:31:12;;;;;;;23.20;13.75;;;20.00;58.20;;;;;;5120423;28;20546;-63
2022/11/24 00:33:38;;;;;;;22.58;13.25;;;20.00;58.20;;;;;;5120502;28;20520;-64
2022/11/24 00:36:04;;;;;;;22.13;13.25;;;19.90;58.20;;;;;;5118309;28;20023;-64
2022/11/24 00:38:30;;;;;;;23.88;13.60;;;19.90;58.20;;;;;;5119332;28;20334;-64
2022/11/24 00:40:55;;;;;;;24.00;14.13;;;19.90;58.20;;;;;;5119845;28;20065;-64
2022/11/24 00:43:21;;;;;;;22.92;12.73;;;19.90;58.20;;;;;;5119267;28;20122;-64
2022/11/24 00:45:46;;;;;;;20.73;12.40;;;19.90;58.20;;;;;;5119272;28;20027;-63
2022/11/24 00:48:12;;;;;;;20.75;12.30;;;19.90;58.20;;;;;;5121297;28;20076;-64
2022/11/24 00:50:38;;;;;;;20.27;11.68;;;19.90;58.20;;;;;;5119623;28;20028;-64
2022/11/24 00:53:04;;;;;;;21.80;12.75;;;19.90;58.20;;;;;;5121491;27;20182;-64
2022/11/24 00:55:29;;;;;;;21.55;12.68;;;19.90;58.20;;;;;;5116880;28;20121;-64
2022/11/24 00:57:55;;;;;;;20.23;12.05;;;19.90;58.20;;;;;;5118937;28;20585;-64
2022/11/24 01:00:20;;;;;;;17.83;11.13;;;19.90;58.20;;;;;;5118785;28;20042;-64
2022/11/24 01:02:46;;;;;;;19.60;12.07;;;19.90;58.20;;;;;;5118698;28;20834;-64
2022/11/24 01:05:12;;;;;;;21.40;12.27;;;19.90;58.20;;;;;;5119327;28;20646;-64
2022/11/24 01:07:37;;;;;;;21.42;12.38;;;19.90;58.20;;;;;;5119659;28;20035;-63
2022/11/24 01:10:03;;;;;;;20.77;12.48;;;19.90;58.20;;;;;;5118740;28;20023;-63
2022/11/24 01:12:30;;;;;;;18.92;11.68;;;19.90;58.20;;;;;;5123370;28;20072;-63
2022/11/24 01:14:56;;;;;;;19.10;11.77;;;19.90;58.20;;;;;;5120906;28;20035;-64
2022/11/24 01:17:22;;;;;;;21.38;11.18;;;19.90;58.20;;;;;;5117823;28;20025;-64
2022/11/24 01:19:48;;;;;;;20.50;11.35;;;19.90;58.70;;;;;;5120568;28;20085;-63
2022/11/24 01:22:14;;;;;;;19.95;11.77;;;19.90;58.20;;;;;;5118406;28;20482;-64
2022/11/24 01:24:40;;;;;;;18.48;10.93;;;19.90;58.20;;;;;;5123536;28;20035;-63
2022/11/24 01:27:06;;;;;;;19.05;11.05;;;19.80;58.10;;;;;;5117692;28;20019;-64
2022/11/24 01:29:31;;;;;;;20.63;11.32;;;19.80;58.10;;;;;;5116492;27;20032;-64
2022/11/24 01:31:57;;;;;;;18.63;11.43;;;19.90;58.20;;;;;;5122496;27;20526;-64
2022/11/24 01:34:23;;;;;;;21.05;11.55;;;19.80;58.10;;;;;;5122273;27;20019;-63
2022/11/24 01:36:48;;;;;;;19.17;11.40;;;19.80;58.10;;;;;;5124859;27;20061;-64
2022/11/24 01:39:14;;;;;;;20.35;11.75;;;19.80;58.10;;;;;;5124037;27;20063;-63
2022/11/24 01:41:39;;;;;;;18.45;11.15;;;19.80;58.10;;;;;;5123505;27;20019;-64
2022/11/24 01:44:25;;;;;;;17.27;10.13;;;19.80;58.10;;;;;;5122651;27;20023;-63
2022/11/24 01:47:04;;;;;;;16.55;10.30;;;19.80;58.10;;;;;;5120982;27;20015;-63
2022/11/24 01:49:41;;;;;;;16.70;10.32;;;19.80;58.10;;;;;;5120947;27;20028;-63
2022/11/24 01:52:33;;;;;;;18.17;10.68;;;19.80;58.10;;;;;;5125282;27;20119;-64
2022/11/24 01:55:04;;;;;;;16.48;9.93;;;19.80;58.10;;;;;;5118204;27;20492;-63
2022/11/24 01:57:35;;;;;;;18.02;10.48;;;19.80;58.10;;;;;;5123324;27;20058;-63
2022/11/24 02:00:07;;;;;;;18.33;10.65;;;19.80;58.10;;;;;;5123712;27;20384;-63
2022/11/24 02:02:33;;;;;;;17.08;10.10;;;19.80;58.10;;;;;;5115675;27;20042;-63
2022/11/24 02:05:04;;;;;;;16.05;9.43;;;19.80;58.10;;;;;;5118722;27;20039;-64
2022/11/24 02:07:30;;;;;;;15.55;9.60;;;19.80;58.10;;;;;;5123555;27;20034;-63
2022/11/24 02:10:01;;;;;;;15.60;9.52;;;19.80;58.10;;;;;;5122738;27;20903;-64
2022/11/24 02:12:27;;;;;;;16.05;9.65;;;19.80;58.10;;;;;;5121105;27;20027;-64
2022/11/24 02:14:54;;;;;;;16.85;10.13;;;19.80;58.10;;;;;;5122617;27;20360;-63
2022/11/24 02:17:20;;;;;;;15.95;9.00;;;19.80;58.10;;;;;;5122504;27;20031;-63
2022/11/24 02:19:56;;;;;;;15.93;9.93;;;19.80;58.60;;;;;;5122734;27;20035;-63
2022/11/24 02:22:35;;;;;;;17.50;10.25;;;19.80;58.10;;;;;;5122283;27;20031;-64
2022/11/24 02:25:17;;;;;;;14.48;9.15;;;19.80;58.10;;;;;;5120048;27;20112;-64
2022/11/24 02:27:44;;;;;;;13.32;8.57;;;19.80;58.10;;;;;;5122661;27;20497;-63
2022/11/24 02:30:10;;;;;;;15.27;8.93;;;19.80;58.10;;;;;;5119612;27;20035;-63
2022/11/24 02:32:39;;;;;;;14.02;8.27;;;19.70;58.00;;;;;;5123379;27;20497;-64
2022/11/24 02:35:06;;;;;;;13.27;8.52;;;19.70;58.10;;;;;;5122687;27;20117;-64
2022/11/24 02:37:32;;;;;;;12.82;8.60;;;19.80;58.10;;;;;;5119510;27;20035;-63
2022/11/24 02:39:57;;;;;;;14.70;8.57;;;19.80;58.10;;;;;;5121449;27;20497;-63
2022/11/24 02:42:26;;;;;;;14.32;8.48;;;19.80;58.10;;;;;;5123443;27;20114;-63
2022/11/24 02:44:56;;;;;;;14.98;9.10;;;19.70;58.00;;;;;;5125338;27;20125;-63
2022/11/24 02:47:21;;;;;;;12.93;7.93;;;19.70;58.00;;;;;;5121555;27;20027;-62
2022/11/24 02:49:47;;;;;;;12.95;8.02;;;19.70;58.10;;;;;;5123699;27;20810;-63
2022/11/24 02:52:13;;;;;;;15.45;8.95;;;19.70;58.10;;;;;;5120165;27;20030;-64
2022/11/24 02:54:38;;;;;;;14.02;9.27;;;19.70;58.10;;;;;;5121903;27;20031;-63
2022/11/24 02:57:04;;;;;;;12.73;8.27;;;19.70;58.10;;;;;;5120316;27;20051;-63
2022/11/24 02:59:30;;;;;;;13.00;8.10;;;19.70;58.10;;;;;;5118997;27;20032;-63
2022/11/24 03:01:55;;;;;;;14.13;8.50;;;19.70;58.00;;;;;;5119844;27;20019;-63
2022/11/24 03:04:21;;;;;;;14.35;8.50;;;19.70;58.00;;;;;;5121568;27;20023;-63
2022/11/24 03:06:47;;;;;;;13.48;7.95;;;19.70;58.10;;;;;;5120715;27;20459;-63
2022/11/24 03:09:12;;;;;;;12.40;7.60;;;19.70;58.10;;;;;;5117249;27;20501;-63
2022/11/24 03:11:38;;;;;;;14.20;8.43;;;19.70;58.60;;;;;;5117911;27;20027;-63
2022/11/24 03:14:04;;;;;;;11.77;7.43;;;19.70;58.00;;;;;;5119670;27;20382;-63
2022/11/24 03:16:31;;;;;;;11.52;7.57;;;19.70;58.10;;;;;;5120555;27;20056;-63
2022/11/24 03:18:56;;;;;;;11.40;7.43;;;19.70;58.00;;;;;;5119105;27;20031;-63
2022/11/24 03:21:22;;;;;;;13.27;8.18;;;19.70;58.10;;;;;;5115121;27;20505;-63
2022/11/24 03:23:47;;;;;;;12.45;8.45;;;19.70;58.10;;;;;;5118392;27;20031;-64
2022/11/24 03:26:16;;;;;;;11.55;7.32;;;19.70;58.10;;;;;;5120963;27;20020;-64
2022/11/24 03:28:41;;;;;;;11.32;7.00;;;19.70;58.00;;;;;;5117467;27;20427;-63
2022/11/24 03:31:07;;;;;;;12.25;7.35;;;19.70;58.10;;;;;;5112661;27;20019;-64
2022/11/24 03:33:34;;;;;;;13.80;7.70;;;19.70;58.00;;;;;;5113211;27;20032;-63
2022/11/24 03:35:59;;;;;;;12.27;7.32;;;19.60;58.00;;;;;;5117914;27;20024;-63
2022/11/24 03:38:25;;;;;;;12.98;7.65;;;19.60;58.00;;;;;;5122405;27;20305;-63
2022/11/24 03:40:50;;;;;;;12.90;8.10;;;19.60;58.00;;;;;;5120597;27;20019;-64
2022/11/24 03:43:16;;;;;;;13.20;7.82;;;19.60;58.00;;;;;;5120072;27;20034;-64
2022/11/24 03:45:46;;;;;;;12.15;7.63;;;19.60;58.10;;;;;;5114587;27;20031;-64
2022/11/24 03:48:13;;;;;;;12.75;7.43;;;19.60;58.10;;;;;;5119973;27;20517;-63
2022/11/24 03:50:39;;;;;;;12.77;7.55;;;19.60;58.10;;;;;;5119458;27;20011;-63
2022/11/24 03:53:04;;;;;;;11.98;7.75;;;19.60;58.10;;;;;;5119348;27;20035;-64
2022/11/24 03:55:30;;;;;;;11.63;7.55;;;19.60;58.10;;;;;;5119646;27;20498;-63
2022/11/24 03:57:56;;;;;;;11.23;6.82;;;19.60;58.10;;;;;;5115944;27;20100;-63
2022/11/24 04:00:21;;;;;;;12.05;7.40;;;19.60;58.10;;;;;;5119700;27;20466;-63
2022/11/24 04:02:47;;;;;;;13.07;7.75;;;19.60;58.10;;;;;;5123389;27;20031;-63
2022/11/24 04:05:13;;;;;;;11.75;7.57;;;19.60;58.10;;;;;;5121117;27;20383;-63
2022/11/24 04:07:39;;;;;;;10.38;6.68;;;19.60;58.10;;;;;;5119827;27;20379;-64
2022/11/24 04:10:05;;;;;;;12.13;7.00;;;19.60;58.10;;;;;;5121359;27;20069;-64
2022/11/24 04:12:43;;;;;;;12.00;6.97;;;19.60;58.10;;;;;;5113611;27;20027;-64
2022/11/24 04:15:10;;;;;;;12.13;7.53;;;19.60;58.10;;;;;;5118030;27;20027;-64
2022/11/24 04:17:36;;;;;;;11.73;7.15;;;19.60;58.10;;;;;;5119037;27;20555;-63
2022/11/24 04:20:02;;;;;;;11.23;7.03;;;19.60;58.10;;;;;;5116620;28;20032;-65
2022/11/24 04:22:28;;;;;;;11.18;7.18;;;19.60;58.10;;;;;;5117155;27;20123;-65
2022/11/24 04:24:53;;;;;;;13.13;7.82;;;19.60;58.20;;;;;;5119709;28;20106;-64
2022/11/24 04:27:19;;;;;;;11.43;7.15;;;19.60;58.20;;;;;;5118656;28;20062;-64
2022/11/24 04:29:45;;;;;;;10.52;6.82;;;19.60;58.20;;;;;;5120533;28;20128;-66
2022/11/24 04:32:10;;;;;;;11.07;6.70;;;19.60;58.20;;;;;;5118910;28;20482;-65
2022/11/24 04:34:36;;;;;;;13.05;7.40;;;19.60;58.20;;;;;;5119279;28;20091;-65
2022/11/24 04:37:02;;;;;;;10.88;6.70;;;19.60;58.20;;;;;;5121686;28;20034;-64
2022/11/24 04:39:27;;;;;;;10.75;6.35;;;19.60;58.20;;;;;;5119006;28;20028;-64
2022/11/24 04:41:53;;;;;;;10.48;6.65;;;19.60;58.20;;;;;;5120246;28;20156;-64
2022/11/24 04:44:19;;;;;;;10.30;6.57;;;19.60;58.30;;;;;;5119098;28;20482;-64
2022/11/24 04:46:45;;;;;;;10.93;6.45;;;19.60;58.30;;;;;;5120677;28;20108;-64
2022/11/24 04:49:11;;;;;;;12.13;6.97;;;19.60;58.30;;;;;;5119231;28;20031;-66
2022/11/24 04:51:38;;;;;;;10.30;6.30;;;19.60;58.30;;;;;;5115251;28;20367;-64
2022/11/24 04:54:04;;;;;;;10.02;5.90;;;19.60;58.40;;;;;;5122115;28;20031;-64
2022/11/24 04:56:30;;;;;;;11.32;6.80;;;19.60;58.40;;;;;;5120923;28;20376;-64
2022/11/24 04:58:55;;;;;;;11.32;6.32;;;19.60;58.40;;;;;;5123492;28;20090;-63
2022/11/24 05:01:21;;;;;;;9.70;6.07;;;19.60;58.40;;;;;;5118596;28;21994;-65
2022/11/24 05:03:47;;;;;;;9.07;6.13;;;19.60;58.50;;;;;;5116181;27;20027;-64
2022/11/24 05:06:12;;;;;;;9.32;6.20;;;19.60;58.50;;;;;;5123191;27;20040;-64
2022/11/24 05:08:38;;;;;;;11.35;6.20;;;19.60;58.50;;;;;;5123834;27;20439;-65
2022/11/24 05:11:07;;;;;;;10.15;6.15;;;19.60;58.50;;;;;;5127493;27;20392;-64
2022/11/24 05:13:32;;;;;;;10.43;6.38;;;19.60;58.50;;;;;;5123030;27;20040;-63
2022/11/24 05:15:59;;;;;;;9.80;5.82;;;19.60;58.50;;;;;;5125211;27;20031;-65
2022/11/24 05:18:24;;;;;;;9.68;5.97;;;19.50;58.50;;;;;;5121390;27;20015;-64
2022/11/24 05:20:50;;;;;;;10.13;5.80;;;19.60;58.60;;;;;;5124394;27;20031;-64
2022/11/24 05:23:16;;;;;;;9.27;6.05;;;19.50;59.10;;;;;;5125576;27;20057;-65
2022/11/24 05:25:42;;;;;;;9.20;5.95;;;19.50;58.60;;;;;;5123778;27;20050;-65
2022/11/24 05:28:11;;;;;;;8.70;5.30;;;19.50;58.60;;;;;;5121561;27;20347;-64
2022/11/24 05:30:38;;;;;;;8.53;4.97;;;19.60;58.80;;;;;;5119601;27;20106;-64
2022/11/24 05:33:10;;;;;;;8.25;4.50;;;19.50;58.80;;;;;;5124611;27;20038;-64
2022/11/24 05:35:36;;;;;;;7.78;4.47;;;19.60;58.90;;;;;;5123448;27;20081;-66
2022/11/24 05:38:03;;;;;;;7.05;4.45;;;19.50;58.90;;;;;;5122228;27;20047;-65
2022/11/24 05:40:30;;;;;;;7.00;4.30;;;19.60;59.00;;;;;;5118236;27;20387;-64
2022/11/24 05:42:56;;;;;;;8.38;5.20;;;19.60;59.00;;;;;;5121952;27;20496;-63
2022/11/24 05:45:21;;;;;;;8.68;5.03;;;19.50;58.90;;;;;;5115882;27;20027;-64
2022/11/24 05:47:49;;;;;;;7.60;4.40;;;19.60;58.90;;;;;;5121576;27;20588;-64
2022/11/24 05:50:17;;;;;;;8.38;5.20;;;19.50;58.80;;;;;;5121350;27;20019;-64
2022/11/24 05:52:43;;;;;;;8.02;4.90;;;19.50;58.90;;;;;;5120977;27;20026;-64
2022/11/24 05:55:10;;;;;;;8.60;5.20;;;19.50;59.40;;;;;;5126556;27;20390;-63
2022/11/24 05:57:36;;;;;;;6.95;4.30;;;19.50;58.90;;;;;;5122226;27;20031;-64
2022/11/24 06:00:04;;;;;;;8.50;4.90;;;19.50;59.00;;;;;;5122275;27;20058;-64
2022/11/24 06:02:29;;;;;;;8.15;4.63;;;19.50;59.00;;;;;;5121331;27;20039;-64
2022/11/24 06:04:55;;;;;;;7.53;4.70;;;19.50;59.00;;;;;;5123799;27;20046;-66
2022/11/24 06:07:21;;;;;;;7.40;4.68;;;19.50;59.00;;;;;;5122599;27;20031;-65
2022/11/24 06:09:46;;;;;;;9.07;4.90;;;19.50;59.00;;;;;;5121008;27;20027;-65
2022/11/24 06:12:13;;;;;;;7.28;4.82;;;19.50;59.00;;;;;;5121844;27;20065;-67
2022/11/24 06:14:38;;;;;;;8.23;5.25;;;19.50;59.00;;;;;;5122369;27;20032;-65
2022/11/24 06:17:05;;;;;;;8.35;4.57;;;19.50;59.00;;;;;;5123834;27;20141;-65
2022/11/24 06:19:30;;;;;;;7.70;4.55;;;19.50;59.00;;;;;;5121945;27;20025;-66
2022/11/24 06:21:56;;;;;;;7.28;4.25;;;19.50;59.00;;;;;;5121213;27;20527;-65
2022/11/24 06:24:22;;;;;;;7.55;4.65;;;19.50;59.00;;;;;;5120620;27;20034;-66
2022/11/24 06:26:48;;;;;;;7.75;4.32;;;19.50;59.00;;;;;;5122164;27;20020;-65
2022/11/24 06:29:13;;;;;;;7.60;4.47;;;19.50;59.00;;;;;;5120743;27;20099;-65
2022/11/24 06:31:39;;;;;;;7.95;4.68;;;19.50;59.00;;;;;;5131722;27;20034;-65
2022/11/24 06:34:06;;;;;;;7.00;4.00;;;19.50;59.00;;;;;;5121263;27;20119;-66
2022/11/24 06:36:32;;;;;;;6.20;3.67;;;19.50;58.70;;;;;;5120847;27;20415;-65
2022/11/24 06:39:00;;;;;;;5.35;2.97;;;19.50;58.30;;;;;;5115658;27;20053;-66
2022/11/24 06:41:26;;;;;;;5.38;3.28;;;19.50;58.10;;;;;;5115189;27;20024;-66
2022/11/24 06:43:51;;;;;;;4.82;2.88;;;19.60;58.00;;;;;;5123980;27;20065;-65
2022/11/24 06:46:17;;;;;;;4.97;2.85;;;19.60;57.90;;;;;;5121954;27;20027;-65
2022/11/24 06:48:42;;;;;;;5.03;2.88;;;19.60;57.80;;;;;;5121207;27;20024;-65
2022/11/24 06:51:11;;;;;;;5.45;3.17;;;19.60;57.90;;;;;;5121098;27;20023;-65
2022/11/24 06:53:38;;;;;;;4.97;3.03;;;19.60;58.10;;;;;;5123105;27;20024;-66
2022/11/24 06:56:09;;;;;;;5.45;3.50;;;19.60;58.20;;;;;;5119823;27;20028;-65
2022/11/24 06:58:46;;;;;;;5.50;3.28;;;19.60;58.20;;;;;;5119700;27;20020;-65
2022/11/24 07:01:25;;;;;;;6.28;2.97;;;19.50;58.20;;;;;;5119038;27;20154;-65
2022/11/24 07:03:51;;;;;;;;;;;19.50;58.20;;;;;;5121543;27;20374;-65
2022/11/24 07:06:18;;;;;;;6.03;3.58;;;19.50;58.20;;;;;;5119904;27;19903;-65
2022/11/24 07:08:44;;;;;;;6.10;3.65;;;19.50;58.30;;;;;;5121682;27;20031;-64
2022/11/24 07:11:15;;;;;;;6.15;3.45;;;19.50;58.30;;;;;;5123299;27;20019;-64
2022/11/24 07:13:45;;;;;;;5.97;3.30;;;19.50;58.30;;;;;;5121132;27;20079;-64
2022/11/24 07:16:20;;;;;;;5.50;2.97;;;19.50;58.30;;;;;;5122089;27;20032;-64
2022/11/24 07:18:46;;;;;;;5.97;3.40;;;19.50;58.60;;;;;;5120330;27;20125;-64
2022/11/24 07:21:12;;;;;;;4.72;3.00;;;19.50;58.40;;;;;;5120825;27;20059;-64
2022/11/24 07:23:38;;;;;;;5.45;3.22;;;19.50;58.40;;;;;;5121427;27;20070;-64
2022/11/24 07:26:05;;;;;;;5.75;3.08;;;19.50;58.40;;;;;;5122721;27;20116;-64
2022/11/24 07:28:31;;;;;;;5.47;3.08;;;19.50;58.50;;;;;;5122190;27;20383;-64
2022/11/24 07:30:57;;;;;;;4.88;3.05;;;19.50;58.50;;;;;;5120620;27;20462;-66
2022/11/24 07:33:24;;;;;;;5.60;3.17;;;19.50;58.60;;;;;;5120355;27;20019;-64
2022/11/24 07:35:53;;;;;;;6.30;3.15;;;19.50;58.60;;;;;;5119941;27;20027;-64
2022/11/24 07:38:19;;;;;;;7.10;3.03;;;19.50;58.70;;;;;;5117497;27;20038;-64
2022/11/24 07:40:45;;;;;;;6.40;3.22;;;19.50;58.80;;;;;;5120243;27;20031;-64
2022/11/24 07:43:11;;;;;;;5.55;3.22;;;19.50;58.80;;;;;;5120216;27;20019;-64
2022/11/24 07:45:37;;;;;;;5.90;3.17;;;19.50;58.80;;;;;;5119003;27;20023;-64
2022/11/24 07:48:03;;;;;;;6.47;3.28;;;19.50;58.90;;;;;;5121055;27;20031;-65
2022/11/24 07:50:28;;;;;;;6.90;3.35;;;19.50;58.90;;;;;;5123107;27;20027;-65
2022/11/24 07:52:54;;;;;;;5.25;3.10;;;19.50;59.00;;;;;;5114975;27;20049;-65
2022/11/24 07:55:19;;;;;;;4.85;2.72;;;19.50;59.00;;;;;;5116946;27;20039;-65
2022/11/24 07:57:45;;;;;;;5.97;2.70;;;19.50;59.10;;;;;;5121415;27;20041;-64
2022/11/24 08:00:11;;;;;;;6.78;3.47;;;19.60;59.20;;;;;;5121611;27;20031;-64
2022/11/24 08:02:37;;;;;;;5.63;3.45;;;19.50;59.20;;;;;;5123438;27;20027;-64
2022/11/24 08:05:03;;;;;;;6.03;3.00;;;19.60;59.30;;;;;;5115993;27;20035;-65
2022/11/24 08:07:29;;;;;;;5.57;3.30;;;19.50;59.20;;;;;;5114190;27;20064;-64
2022/11/24 08:09:54;;;;;;;5.15;2.80;;;19.60;59.30;;;;;;5122533;27;20019;-64
2022/11/24 08:12:20;;;;;;;5.18;3.13;;;19.50;59.20;;;;;;5121000;27;20062;-64
2022/11/24 08:14:49;;;;;;;4.60;2.70;;;19.60;59.40;;;;;;5124592;27;20043;-64
2022/11/24 08:17:18;;;;;;;7.88;3.78;;;19.60;59.40;;;;;;5121237;27;20027;-64
2022/11/24 08:19:44;;;;;;;4.78;2.80;;;19.50;59.40;;;;;;5119936;27;20496;-64
2022/11/24 08:22:09;;;;;;;6.18;3.13;;;19.50;59.40;;;;;;5119776;27;20118;-66
2022/11/24 08:24:35;;;;;;;5.43;2.95;;;19.60;59.50;;;;;;5122737;28;20493;-66
2022/11/24 08:27:01;;;;;;;5.82;2.90;;;19.60;59.50;;;;;;5121287;28;20031;-66
2022/11/24 08:29:28;;;;;;;5.20;2.70;;;19.60;59.50;;;;;;5120785;28;20030;-66
2022/11/24 08:31:56;;;;;;;5.13;2.85;;;19.60;59.50;;;;;;5122208;28;20151;-67
2022/11/24 08:34:22;;;;;;;5.43;2.65;;;19.60;59.60;;;;;;5118885;28;20489;-67
2022/11/24 08:36:49;;;;;;;5.68;2.95;;;19.50;59.60;;;;;;5124153;28;20030;-66
2022/11/24 08:39:14;;;;;;;5.43;3.00;;;19.60;59.70;;;;;;5118937;27;20059;-66
2022/11/24 08:41:40;;;;;;;5.22;2.75;;;19.60;59.80;;;;;;5122004;27;20031;-66
2022/11/24 08:44:07;;;;;;;6.55;3.10;;;19.50;59.70;;;;;;5123438;27;20019;-67
2022/11/24 08:46:33;;;;;;;4.00;2.50;;;19.60;59.80;;;;;;5123840;27;20066;-67
2022/11/24 08:48:58;;;;;;;4.88;2.53;;;19.50;59.70;;;;;;5128370;27;20533;-65
2022/11/24 08:51:26;;;;;;;5.88;2.78;;;19.60;59.80;;;;;;5123758;27;20030;-66
2022/11/24 08:53:59;;;;;;;4.95;2.85;;;19.60;59.90;;;;;;5130432;27;20474;-66
2022/11/24 08:56:27;;;;;;;4.45;2.30;;;19.60;59.90;;;;;;5124312;27;20030;-65
2022/11/24 08:58:53;;;;;;;6.57;2.50;;;19.60;59.90;;;;;;5125480;27;20027;-67
2022/11/24 09:01:19;;;;;;;4.63;2.80;;;19.60;60.00;;;;;;5126177;27;20034;-66
2022/11/24 09:03:47;;;;;;;5.30;2.85;;;19.60;60.00;;;;;;5122522;27;20504;-66
2022/11/24 09:06:13;;;;;;;4.55;2.47;;;19.60;60.10;;;;;;5123287;27;20023;-66
2022/11/24 09:08:39;;;;;;;4.60;2.75;;;19.60;60.10;;;;;;5119825;27;20371;-66
2022/11/24 09:11:11;;;;;;;4.28;2.38;;;19.60;60.10;;;;;;5123664;27;20047;-66
2022/11/24 09:13:38;;;;;;;4.45;2.28;;;19.60;60.10;;;;;;5122995;27;20387;-66
2022/11/24 09:16:05;;;;;;;4.75;2.33;;;19.60;60.20;;;;;;5131237;27;20038;-66
2022/11/24 09:18:31;;;;;;;5.28;2.40;;;19.60;60.20;;;;;;5120420;27;20054;-67
2022/11/24 09:21:11;;;;;;;5.68;2.70;;;19.60;60.20;;;;;;5126163;27;20099;-64
2022/11/24 09:23:38;;;;;;;5.32;2.53;;;19.60;60.20;;;;;;5122358;27;20885;-65
2022/11/24 09:26:12;;;;;;;5.05;2.35;;;19.60;60.20;;;;;;5128940;27;20467;-65
2022/11/24 09:28:37;;;;;;;5.00;2.53;;;19.60;60.20;;;;;;5121061;27;20493;-64
2022/11/24 09:31:06;;;;;;;4.72;2.30;;;19.60;60.30;;;;;;5120824;27;20027;-66
2022/11/24 09:33:32;;;;;;;5.88;2.20;;;19.60;60.30;;;;;;5120499;27;20051;-66
2022/11/24 09:35:58;;;;;;;3.95;2.20;;;19.60;60.30;;;;;;5119257;27;20024;-64
2022/11/24 09:38:24;;;;;;;4.15;2.25;;;19.60;60.30;;;;;;5116910;27;20038;-65
2022/11/24 09:40:51;;;;;;;4.80;2.40;;;19.60;60.40;;;;;;5123216;27;20031;-65
2022/11/24 09:43:46;;;;;;;4.38;2.13;;;19.60;60.30;;;;;;5123782;27;20079;-65
2022/11/24 09:46:21;;;;;;;5.78;2.42;;;19.60;60.40;;;;;;5118222;27;20020;-65
2022/11/24 09:48:51;;;;;;;4.47;2.20;;;19.60;60.40;;;;;;5115067;27;20019;-65
2022/11/24 09:51:21;;;;;;;5.85;2.70;;;19.60;60.40;;;;;;5124363;27;20020;-65
2022/11/24 09:54:04;;;;;;;4.97;2.15;;;19.60;60.40;;;;;;5122071;27;20015;-66
2022/11/24 09:56:33;;;;;;;4.43;2.20;;;19.60;60.50;;;;;;5121493;27;20023;-66
2022/11/24 09:59:15;;;;;;;4.90;2.33;;;19.60;60.40;;;;;;5116834;27;20442;-65
2022/11/24 10:01:43;;;;;;;4.40;2.30;;;19.60;60.50;;;;;;5120369;27;20039;-66
2022/11/24 10:04:14;;;;;;;3.63;2.00;;;19.60;60.40;;;;;;5120286;27;20035;-65
2022/11/24 10:07:03;;;;;;;4.63;2.50;;;19.60;60.50;;;;;;5118429;27;20034;-65
2022/11/24 10:09:35;;;;;;;;;;;19.60;60.60;;;;;;5120098;27;20463;-65
2022/11/24 10:12:18;;;;;;;5.57;2.40;;;19.60;60.60;;;;;;5116602;27;19911;-65
2022/11/24 10:15:03;;;;;;;4.60;2.22;;;19.60;60.60;;;;;;5121603;27;20522;-65
2022/11/24 10:17:47;;;;;;;4.32;2.40;;;19.60;60.60;;;;;;5122948;27;20504;-65
2022/11/24 10:20:26;;;;;;;3.92;2.30;;;19.60;60.70;;;;;;5122067;27;20475;-65
2022/11/24 10:23:15;;;;;;;4.75;2.28;;;19.60;60.70;;;;;;5117958;27;20115;-66
2022/11/24 10:25:54;;;;;;;4.57;2.28;;;19.60;60.70;;;;;;5121249;27;20024;-65
2022/11/24 10:28:19;;;;;;;5.30;2.83;;;19.60;60.70;;;;;;5121723;27;20377;-67
2022/11/24 10:30:45;;;;;;;4.82;2.38;;;19.60;60.70;;;;;;5121252;27;20026;-66
2022/11/24 10:33:20;;;;;;;3.92;2.30;;;19.60;60.70;;;;;;5121159;27;20028;-66
2022/11/24 10:35:54;;;;;;;4.05;2.40;;;19.60;60.80;;;;;;5116864;27;20114;-66
2022/11/24 10:38:42;;;;;;;4.57;2.30;;;19.60;60.80;;;;;;5120635;27;20674;-67
2022/11/24 10:41:18;;;;;;;4.47;2.42;;;19.60;60.80;;;;;;5124617;27;20501;-65
2022/11/24 10:43:44;;;;;;;4.22;2.30;;;19.60;60.70;;;;;;5119971;27;20529;-65
2022/11/24 10:46:21;;;;;;;3.80;2.22;;;19.60;60.80;;;;;;5118829;27;20122;-65
2022/11/24 10:48:57;;;;;;;5.00;2.40;;;19.60;60.80;;;;;;5121884;27;20029;-66
2022/11/24 10:51:46;;;;;;;5.35;2.72;;;19.60;60.80;;;;;;5117083;27;20047;-65
2022/11/24 10:54:18;;;;;;;4.72;2.45;;;19.60;60.90;;;;;;5121401;27;20045;-66
2022/11/24 10:56:45;;;;;;;4.72;2.60;;;19.60;60.80;;;;;;5121412;27;20482;-65
2022/11/24 10:59:24;;;;;;;5.53;2.50;;;19.60;60.80;;;;;;5119415;27;20026;-65
2022/11/24 11:01:52;;;;;;;4.90;2.42;;;19.60;61.00;;;;;;5119390;27;20470;-66
2022/11/24 11:04:24;;;;;;;4.93;3.03;;;19.60;61.00;;;;;;5121092;27;20026;-65
2022/11/24 11:06:49;;;;;;;5.07;2.67;;;19.60;61.00;;;;;;5121409;27;20035;-65
2022/11/24 11:09:18;;;;;;;5.03;2.60;;;19.60;60.90;;;;;;5121860;27;20023;-65
2022/11/24 11:11:48;;;;;;;4.07;2.50;;;19.60;61.00;;;;;;5129054;27;20034;-65
2022/11/24 11:14:31;;;;;;;5.25;2.60;;;19.60;61.00;;;;;;5120183;27;20070;-66
2022/11/24 11:16:58;;;;;;;5.13;2.70;;;19.60;61.00;;;;;;5119703;27;20386;-65
2022/11/24 11:19:39;;;;;;;4.00;2.55;;;19.60;61.10;;;;;;5119814;27;20058;-65
2022/11/24 11:22:10;;;;;;;5.05;2.55;;;19.60;61.10;;;;;;5119278;27;20476;-66
2022/11/24 11:24:45;;;;;;;4.60;2.22;;;19.60;61.00;;;;;;5120143;27;20532;-66
2022/11/24 11:27:23;;;;;;;4.55;2.70;;;19.60;61.60;;;;;;5120505;27;20028;-66
2022/11/24 11:29:49;;;;;;;4.53;2.40;;;19.60;61.20;;;;;;5117126;27;20024;-65
2022/11/24 11:32:22;;;;;;;4.50;2.65;;;19.60;61.10;;;;;;5120917;27;20042;-66
2022/11/24 11:34:50;;;;;;;6.00;2.80;;;19.60;61.10;;;;;;5116884;27;20122;-66
2022/11/24 11:37:18;;;;;;;5.35;3.05;;;19.60;61.10;;;;;;5122529;27;20034;-66
2022/11/24 11:39:49;;;;;;;5.35;2.83;;;19.60;61.20;;;;;;5118771;27;20028;-66
2022/11/24 11:42:37;;;;;;;4.97;2.92;;;19.60;61.20;;;;;;5117261;27;20039;-66
2022/11/24 11:45:13;;;;;;;4.50;2.78;;;19.60;61.20;;;;;;5120783;27;20455;-66
2022/11/24 11:47:48;;;;;;;5.35;3.13;;;19.60;61.20;;;;;;5120407;27;20495;-65
2022/11/24 11:50:16;;;;;;;4.50;2.78;;;19.60;61.30;;;;;;5128343;27;20061;-65
2022/11/24 11:53:00;;;;;;;5.35;3.00;;;19.60;61.30;;;;;;5120852;27;20035;-65
2022/11/24 11:55:45;;;;;;;4.07;2.80;;;19.60;61.30;;;;;;5121247;27;20027;-64
2022/11/24 11:58:28;;;;;;;4.93;2.90;;;19.60;61.50;;;;;;5121281;27;20019;-65
2022/11/24 12:01:09;;;;;;;4.75;2.60;;;19.60;61.60;;;;;;5121325;27;20442;-64
2022/11/24 12:03:45;;;;;;;4.97;2.83;;;19.60;61.50;;;;;;5120182;27;20112;-65
2022/11/24 12:06:20;;;;;;;4.85;2.53;;;19.60;61.60;;;;;;5119061;27;20386;-65
2022/11/24 12:09:26;;;;;;;5.63;2.75;;;19.60;61.60;;;;;;5118546;27;20062;-65
2022/11/24 12:12:18;;;;;;;5.95;2.90;;;19.60;61.70;;;;;;5122693;27;20505;-66
2022/11/24 12:15:02;;;;;;;4.97;2.88;;;19.60;61.80;;;;;;5119265;27;20039;-66
2022/11/24 12:17:33;;;;;;;5.68;3.15;;;19.60;62.30;;;;;;5115165;27;20050;-64
2022/11/24 12:20:14;;;;;;;4.53;2.70;;;19.60;62.20;;;;;;5116756;27;20110;-65
2022/11/24 12:22:50;;;;;;;4.25;2.72;;;19.60;62.30;;;;;;5113130;28;20036;-65
2022/11/24 12:25:38;;;;;;;5.20;2.85;;;19.60;62.30;;;;;;5127667;27;20481;-66
2022/11/24 12:28:06;;;;;;;5.93;2.88;;;19.60;62.30;;;;;;5127771;28;20019;-65
2022/11/24 12:30:51;;;;;;;5.77;2.80;;;19.60;62.30;;;;;;5117039;28;20031;-66
2022/11/24 12:33:42;;;;;;;5.03;2.70;;;19.70;62.50;;;;;;5126909;28;20028;-65
2022/11/24 12:36:11;;;;;;;5.25;2.83;;;19.60;62.50;;;;;;5119036;28;20380;-65
2022/11/24 12:39:05;;;;;;;4.40;2.83;;;19.70;62.50;;;;;;5120028;28;20039;-65
2022/11/24 12:41:40;;;;;;;4.97;2.60;;;19.60;62.80;;;;;;5116799;28;20619;-65
2022/11/24 12:44:38;;;;;;;5.28;2.70;;;19.60;62.70;;;;;;5119975;28;20557;-65
2022/11/24 12:47:21;;;;;;;4.95;2.70;;;19.70;62.80;;;;;;5095452;28;20039;-66
2022/11/24 12:49:56;;;;;;;5.15;2.80;;;19.70;62.90;;;;;;5119058;28;20023;-66
2022/11/24 12:52:31;;;;;;;6.32;3.15;;;19.70;62.90;;;;;;5120020;28;20034;-65